Terminal Aerodrome Forecast
Issued by NWS

Home | Current Version | Previous Version | Text Only | Print | Product List | Glossary On
Versions: 1 2 3 4 5 6 7 8 9 10 11 12 13 14
824
FTUS42 KMLB 161734
TAFTIX
TAF
KTIX 161734Z 1618/1718 12006KT P6SM SCT035
     FM170000 10005KT P6SM FEW040 SCT250
     FM170900 00000KT 6SM BR FEW040
      TEMPO 1710/1713 3SM BR SCT015
     FM171300 14008KT P6SM SCT035=

USA.gov is the U.S. government's official web portal to all federal, state and local government web resources and services.